sensor_id;sensor_type;location;lat;lon;timestamp;temperature;humidity
18888;DHT22;9576;47.792;9.628;2023-04-24T00:01:22;9.70;99.90
18888;DHT22;9576;47.792;9.628;2023-04-24T00:04:24;9.70;99.90
18888;DHT22;9576;47.792;9.628;2023-04-24T00:07:26;9.70;99.90
18888;DHT22;9576;47.792;9.628;2023-04-24T00:10:28;9.70;99.90
18888;DHT22;9576;47.792;9.628;2023-04-24T00:13:30;9.80;99.90
18888;DHT22;9576;47.792;9.628;2023-04-24T00:16:34;9.80;99.90
18888;DHT22;9576;47.792;9.628;2023-04-24T00:19:36;9.80;99.90
18888;DHT22;9576;47.792;9.628;2023-04-24T00:22:38;9.80;99.90
18888;DHT22;9576;47.792;9.628;2023-04-24T00:25:40;9.90;99.90
18888;DHT22;9576;47.792;9.628;2023-04-24T00:28:42;9.80;99.90
18888;DHT22;9576;47.792;9.628;2023-04-24T00:31:45;9.90;99.90
18888;DHT22;9576;47.792;9.628;2023-04-24T00:34:47;9.80;99.90
18888;DHT22;9576;47.792;9.628;2023-04-24T00:37:49;9.90;99.90
18888;DHT22;9576;47.792;9.628;2023-04-24T00:40:51;9.90;99.90
18888;DHT22;9576;47.792;9.628;2023-04-24T00:43:54;9.90;99.90
18888;DHT22;9576;47.792;9.628;2023-04-24T00:46:58;9.90;99.90
18888;DHT22;9576;47.792;9.628;2023-04-24T00:50:02;9.80;99.90
18888;DHT22;9576;47.792;9.628;2023-04-24T00:53:04;9.80;99.90
18888;DHT22;9576;47.792;9.628;2023-04-24T00:56:06;9.80;99.90
18888;DHT22;9576;47.792;9.628;2023-04-24T00:59:08;9.80;99.90
18888;DHT22;9576;47.792;9.628;2023-04-24T01:02:12;9.70;99.90
18888;DHT22;9576;47.792;9.628;2023-04-24T01:05:15;9.70;99.90
18888;DHT22;9576;47.792;9.628;2023-04-24T01:08:17;9.70;99.90
18888;DHT22;9576;47.792;9.628;2023-04-24T01:11:21;9.70;99.90
18888;DHT22;9576;47.792;9.628;2023-04-24T01:14:23;9.70;99.90
18888;DHT22;9576;47.792;9.628;2023-04-24T01:17:26;9.70;99.90
18888;DHT22;9576;47.792;9.628;2023-04-24T01:20:29;9.70;99.90
18888;DHT22;9576;47.792;9.628;2023-04-24T01:23:33;9.70;99.90
18888;DHT22;9576;47.792;9.628;2023-04-24T01:26:35;9.70;99.90
18888;DHT22;9576;47.792;9.628;2023-04-24T01:29:37;9.80;99.90
18888;DHT22;9576;47.792;9.628;2023-04-24T01:32:40;9.80;99.90
18888;DHT22;9576;47.792;9.628;2023-04-24T01:35:45;9.80;99.90
18888;DHT22;9576;47.792;9.628;2023-04-24T01:38:48;9.70;99.90
18888;DHT22;9576;47.792;9.628;2023-04-24T01:41:50;9.70;99.90
18888;DHT22;9576;47.792;9.628;2023-04-24T01:44:52;9.70;99.90
18888;DHT22;9576;47.792;9.628;2023-04-24T01:47:55;9.60;99.90
18888;DHT22;9576;47.792;9.628;2023-04-24T01:50:58;9.60;99.90
18888;DHT22;9576;47.792;9.628;2023-04-24T01:54:02;9.60;99.90
18888;DHT22;9576;47.792;9.628;2023-04-24T01:57:04;9.60;99.90
18888;DHT22;9576;47.792;9.628;2023-04-24T02:00:07;9.60;99.90
18888;DHT22;9576;47.792;9.628;2023-04-24T02:03:12;9.60;99.90
18888;DHT22;9576;47.792;9.628;2023-04-24T02:06:14;9.60;99.90
18888;DHT22;9576;47.792;9.628;2023-04-24T02:09:17;9.60;99.90
18888;DHT22;9576;47.792;9.628;2023-04-24T02:12:19;9.50;99.90
18888;DHT22;9576;47.792;9.628;2023-04-24T02:15:21;9.50;99.90
18888;DHT22;9576;47.792;9.628;2023-04-24T02:18:23;9.50;99.90
18888;DHT22;9576;47.792;9.628;2023-04-24T02:21:25;9.50;99.90
18888;DHT22;9576;47.792;9.628;2023-04-24T02:24:29;9.50;99.90
18888;DHT22;9576;47.792;9.628;2023-04-24T02:27:31;9.60;99.90
18888;DHT22;9576;47.792;9.628;2023-04-24T02:30:33;9.60;99.90
18888;DHT22;9576;47.792;9.628;2023-04-24T02:33:35;9.60;99.90
18888;DHT22;9576;47.792;9.628;2023-04-24T02:36:37;9.50;99.90
18888;DHT22;9576;47.792;9.628;2023-04-24T02:39:40;9.50;99.90
18888;DHT22;9576;47.792;9.628;2023-04-24T02:42:42;9.60;99.90
18888;DHT22;9576;47.792;9.628;2023-04-24T02:45:44;9.60;99.90
18888;DHT22;9576;47.792;9.628;2023-04-24T02:48:46;9.60;99.90
18888;DHT22;9576;47.792;9.628;2023-04-24T02:51:47;9.60;99.90
18888;DHT22;9576;47.792;9.628;2023-04-24T02:54:51;9.60;99.90
18888;DHT22;9576;47.792;9.628;2023-04-24T02:57:54;9.60;99.90
18888;DHT22;9576;47.792;9.628;2023-04-24T03:00:56;9.60;99.90
18888;DHT22;9576;47.792;9.628;2023-04-24T03:03:58;9.60;99.90
18888;DHT22;9576;47.792;9.628;2023-04-24T03:07:00;9.60;99.90
18888;DHT22;9576;47.792;9.628;2023-04-24T03:10:04;9.60;99.90
18888;DHT22;9576;47.792;9.628;2023-04-24T03:13:06;9.60;99.90
18888;DHT22;9576;47.792;9.628;2023-04-24T03:16:08;9.60;99.90
18888;DHT22;9576;47.792;9.628;2023-04-24T03:19:10;9.60;99.90
18888;DHT22;9576;47.792;9.628;2023-04-24T03:22:12;9.50;99.90
18888;DHT22;9576;47.792;9.628;2023-04-24T03:25:15;9.50;99.90
18888;DHT22;9576;47.792;9.628;2023-04-24T03:28:17;9.40;99.90
18888;DHT22;9576;47.792;9.628;2023-04-24T03:31:20;9.30;99.90
18888;DHT22;9576;47.792;9.628;2023-04-24T03:34:22;9.30;99.90
18888;DHT22;9576;47.792;9.628;2023-04-24T03:37:24;9.30;99.90
18888;DHT22;9576;47.792;9.628;2023-04-24T03:40:28;9.30;99.90
18888;DHT22;9576;47.792;9.628;2023-04-24T03:43:30;9.30;99.90
18888;DHT22;9576;47.792;9.628;2023-04-24T03:46:33;9.30;99.90
18888;DHT22;9576;47.792;9.628;2023-04-24T03:49:35;9.30;99.90
18888;DHT22;9576;47.792;9.628;2023-04-24T03:52:37;9.30;99.90
18888;DHT22;9576;47.792;9.628;2023-04-24T03:55:41;9.30;99.90
18888;DHT22;9576;47.792;9.628;2023-04-24T03:58:43;9.20;99.90
18888;DHT22;9576;47.792;9.628;2023-04-24T04:01:45;9.20;99.90
18888;DHT22;9576;47.792;9.628;2023-04-24T04:04:47;9.10;99.90
18888;DHT22;9576;47.792;9.628;2023-04-24T04:07:48;9.10;99.90
18888;DHT22;9576;47.792;9.628;2023-04-24T04:10:52;9.10;99.90
18888;DHT22;9576;47.792;9.628;2023-04-24T04:13:54;9.10;99.90
18888;DHT22;9576;47.792;9.628;2023-04-24T04:16:56;9.10;99.90
18888;DHT22;9576;47.792;9.628;2023-04-24T04:19:58;9.10;99.90
18888;DHT22;9576;47.792;9.628;2023-04-24T04:22:59;9.20;99.90
18888;DHT22;9576;47.792;9.628;2023-04-24T04:26:03;9.20;99.90
18888;DHT22;9576;47.792;9.628;2023-04-24T04:29:05;9.20;99.90
18888;DHT22;9576;47.792;9.628;2023-04-24T04:32:07;9.20;99.90
18888;DHT22;9576;47.792;9.628;2023-04-24T04:35:09;9.20;99.90
18888;DHT22;9576;47.792;9.628;2023-04-24T04:38:11;9.20;99.90
18888;DHT22;9576;47.792;9.628;2023-04-24T04:41:14;9.20;99.90
18888;DHT22;9576;47.792;9.628;2023-04-24T04:44:17;9.20;99.90
18888;DHT22;9576;47.792;9.628;2023-04-24T04:47:21;9.20;99.90
18888;DHT22;9576;47.792;9.628;2023-04-24T04:50:23;9.20;99.90
18888;DHT22;9576;47.792;9.628;2023-04-24T04:53:25;9.20;99.90
18888;DHT22;9576;47.792;9.628;2023-04-24T04:56:29;9.30;99.90
18888;DHT22;9576;47.792;9.628;2023-04-24T04:59:31;9.30;99.90
18888;DHT22;9576;47.792;9.628;2023-04-24T05:02:33;9.30;99.90
18888;DHT22;9576;47.792;9.628;2023-04-24T05:05:34;9.30;99.90
18888;DHT22;9576;47.792;9.628;2023-04-24T05:08:41;9.40;99.90
18888;DHT22;9576;47.792;9.628;2023-04-24T05:11:44;9.40;99.90
18888;DHT22;9576;47.792;9.628;2023-04-24T05:14:46;9.40;99.90
18888;DHT22;9576;47.792;9.628;2023-04-24T05:17:48;9.40;99.90
18888;DHT22;9576;47.792;9.628;2023-04-24T05:20:50;9.40;99.90
18888;DHT22;9576;47.792;9.628;2023-04-24T05:23:52;9.50;99.90
18888;DHT22;9576;47.792;9.628;2023-04-24T05:26:55;9.60;99.90
18888;DHT22;9576;47.792;9.628;2023-04-24T05:29:59;9.60;99.90
18888;DHT22;9576;47.792;9.628;2023-04-24T05:33:01;9.60;99.90
18888;DHT22;9576;47.792;9.628;2023-04-24T05:36:03;9.70;99.90
18888;DHT22;9576;47.792;9.628;2023-04-24T05:39:06;9.70;99.90
18888;DHT22;9576;47.792;9.628;2023-04-24T05:42:10;9.70;99.90
18888;DHT22;9576;47.792;9.628;2023-04-24T05:45:11;9.80;99.90
18888;DHT22;9576;47.792;9.628;2023-04-24T05:48:17;9.80;99.90
18888;DHT22;9576;47.792;9.628;2023-04-24T05:51:19;9.80;99.90
18888;DHT22;9576;47.792;9.628;2023-04-24T05:54:20;9.80;99.90
18888;DHT22;9576;47.792;9.628;2023-04-24T05:57:24;9.80;99.90
18888;DHT22;9576;47.792;9.628;2023-04-24T06:00:26;9.70;99.90
18888;DHT22;9576;47.792;9.628;2023-04-24T06:03:29;9.60;99.90
18888;DHT22;9576;47.792;9.628;2023-04-24T06:06:31;9.50;99.90
18888;DHT22;9576;47.792;9.628;2023-04-24T06:09:33;9.40;99.90
18888;DHT22;9576;47.792;9.628;2023-04-24T06:12:36;9.30;99.90
18888;DHT22;9576;47.792;9.628;2023-04-24T06:15:38;9.20;99.90
18888;DHT22;9576;47.792;9.628;2023-04-24T06:18:41;9.20;99.90
18888;DHT22;9576;47.792;9.628;2023-04-24T06:21:43;9.20;99.90
18888;DHT22;9576;47.792;9.628;2023-04-24T06:24:45;9.20;99.90
18888;DHT22;9576;47.792;9.628;2023-04-24T06:27:50;9.30;99.90
18888;DHT22;9576;47.792;9.628;2023-04-24T06:30:51;9.30;99.90
18888;DHT22;9576;47.792;9.628;2023-04-24T06:33:53;9.30;99.90
18888;DHT22;9576;47.792;9.628;2023-04-24T06:36:55;9.30;99.90
18888;DHT22;9576;47.792;9.628;2023-04-24T06:39:57;9.30;99.90
18888;DHT22;9576;47.792;9.628;2023-04-24T06:43:01;9.30;99.90
18888;DHT22;9576;47.792;9.628;2023-04-24T06:46:03;9.30;99.90
18888;DHT22;9576;47.792;9.628;2023-04-24T06:49:05;9.30;99.90
18888;DHT22;9576;47.792;9.628;2023-04-24T06:52:07;9.30;99.90
18888;DHT22;9576;47.792;9.628;2023-04-24T06:55:10;9.50;99.90
18888;DHT22;9576;47.792;9.628;2023-04-24T06:58:13;9.60;99.90
18888;DHT22;9576;47.792;9.628;2023-04-24T07:01:16;9.70;99.90
18888;DHT22;9576;47.792;9.628;2023-04-24T07:04:18;9.70;99.90
18888;DHT22;9576;47.792;9.628;2023-04-24T07:07:20;9.60;99.90
18888;DHT22;9576;47.792;9.628;2023-04-24T07:10:22;9.60;99.90
18888;DHT22;9576;47.792;9.628;2023-04-24T07:13:25;9.60;99.90
18888;DHT22;9576;47.792;9.628;2023-04-24T07:16:28;9.70;99.90
18888;DHT22;9576;47.792;9.628;2023-04-24T07:19:30;9.80;99.90
18888;DHT22;9576;47.792;9.628;2023-04-24T07:22:32;9.90;99.90
18888;DHT22;9576;47.792;9.628;2023-04-24T07:25:34;10.10;99.90
18888;DHT22;9576;47.792;9.628;2023-04-24T07:28:37;10.10;99.90
18888;DHT22;9576;47.792;9.628;2023-04-24T07:31:40;10.20;99.90
18888;DHT22;9576;47.792;9.628;2023-04-24T07:34:42;10.30;99.90
18888;DHT22;9576;47.792;9.628;2023-04-24T07:37:44;10.50;99.90
18888;DHT22;9576;47.792;9.628;2023-04-24T07:40:46;10.50;99.90
18888;DHT22;9576;47.792;9.628;2023-04-24T07:43:49;10.60;99.90
18888;DHT22;9576;47.792;9.628;2023-04-24T07:46:51;10.80;99.90
18888;DHT22;9576;47.792;9.628;2023-04-24T07:49:53;10.80;99.90
18888;DHT22;9576;47.792;9.628;2023-04-24T07:52:56;11.10;99.90
18888;DHT22;9576;47.792;9.628;2023-04-24T07:55:58;11.30;99.90
18888;DHT22;9576;47.792;9.628;2023-04-24T07:59:01;11.30;99.90
18888;DHT22;9576;47.792;9.628;2023-04-24T08:02:03;11.20;99.90
18888;DHT22;9576;47.792;9.628;2023-04-24T08:05:07;11.30;99.90
18888;DHT22;9576;47.792;9.628;2023-04-24T08:08:09;11.40;99.90
18888;DHT22;9576;47.792;9.628;2023-04-24T08:11:11;11.40;99.90
18888;DHT22;9576;47.792;9.628;2023-04-24T08:14:14;11.60;99.90
18888;DHT22;9576;47.792;9.628;2023-04-24T08:17:16;11.60;99.90
18888;DHT22;9576;47.792;9.628;2023-04-24T08:20:18;11.50;99.90
18888;DHT22;9576;47.792;9.628;2023-04-24T08:23:20;11.40;99.90
18888;DHT22;9576;47.792;9.628;2023-04-24T08:26:22;11.40;99.90
18888;DHT22;9576;47.792;9.628;2023-04-24T08:29:26;11.30;99.90
18888;DHT22;9576;47.792;9.628;2023-04-24T08:32:28;11.20;99.90
18888;DHT22;9576;47.792;9.628;2023-04-24T08:35:30;11.30;99.90
18888;DHT22;9576;47.792;9.628;2023-04-24T08:38:32;11.30;99.90
18888;DHT22;9576;47.792;9.628;2023-04-24T08:41:34;11.60;99.90
18888;DHT22;9576;47.792;9.628;2023-04-24T08:44:39;11.70;99.90
18888;DHT22;9576;47.792;9.628;2023-04-24T08:47:42;11.60;99.90
18888;DHT22;9576;47.792;9.628;2023-04-24T08:50:44;11.50;99.90
18888;DHT22;9576;47.792;9.628;2023-04-24T08:53:46;11.30;99.90
18888;DHT22;9576;47.792;9.628;2023-04-24T08:56:49;11.10;99.90
18888;DHT22;9576;47.792;9.628;2023-04-24T08:59:53;10.80;99.90
18888;DHT22;9576;47.792;9.628;2023-04-24T09:02:56;10.20;99.90
18888;DHT22;9576;47.792;9.628;2023-04-24T09:05:59;9.80;99.90
18888;DHT22;9576;47.792;9.628;2023-04-24T09:09:02;9.60;99.90
18888;DHT22;9576;47.792;9.628;2023-04-24T09:12:04;9.60;99.90
18888;DHT22;9576;47.792;9.628;2023-04-24T09:15:09;9.70;99.90
18888;DHT22;9576;47.792;9.628;2023-04-24T09:18:11;9.90;99.90
18888;DHT22;9576;47.792;9.628;2023-04-24T09:21:13;10.00;99.90
18888;DHT22;9576;47.792;9.628;2023-04-24T09:24:17;10.30;99.90
18888;DHT22;9576;47.792;9.628;2023-04-24T09:27:23;10.50;99.90
18888;DHT22;9576;47.792;9.628;2023-04-24T09:30:26;10.50;99.90
18888;DHT22;9576;47.792;9.628;2023-04-24T09:33:28;10.60;99.90
18888;DHT22;9576;47.792;9.628;2023-04-24T09:36:31;10.80;99.90
18888;DHT22;9576;47.792;9.628;2023-04-24T09:39:34;11.10;99.90
18888;DHT22;9576;47.792;9.628;2023-04-24T09:42:36;11.40;99.90
18888;DHT22;9576;47.792;9.628;2023-04-24T09:45:39;11.70;99.90
18888;DHT22;9576;47.792;9.628;2023-04-24T09:48:41;11.70;99.90
18888;DHT22;9576;47.792;9.628;2023-04-24T09:51:43;11.70;99.90
18888;DHT22;9576;47.792;9.628;2023-04-24T09:54:52;11.80;99.90
18888;DHT22;9576;47.792;9.628;2023-04-24T09:57:56;11.90;99.90
18888;DHT22;9576;47.792;9.628;2023-04-24T10:00:59;12.10;99.90
18888;DHT22;9576;47.792;9.628;2023-04-24T10:04:01;12.20;99.90
18888;DHT22;9576;47.792;9.628;2023-04-24T10:07:03;12.40;99.90
18888;DHT22;9576;47.792;9.628;2023-04-24T10:10:07;12.40;99.90
18888;DHT22;9576;47.792;9.628;2023-04-24T10:13:11;12.40;99.90
18888;DHT22;9576;47.792;9.628;2023-04-24T10:16:14;12.50;99.90
18888;DHT22;9576;47.792;9.628;2023-04-24T10:19:17;12.50;99.90
18888;DHT22;9576;47.792;9.628;2023-04-24T10:22:21;12.50;99.90
18888;DHT22;9576;47.792;9.628;2023-04-24T10:25:26;12.40;99.90
18888;DHT22;9576;47.792;9.628;2023-04-24T10:28:30;12.40;99.90
18888;DHT22;9576;47.792;9.628;2023-04-24T10:31:33;12.30;99.90
18888;DHT22;9576;47.792;9.628;2023-04-24T10:34:36;12.40;99.90
18888;DHT22;9576;47.792;9.628;2023-04-24T10:37:40;12.50;99.90
18888;DHT22;9576;47.792;9.628;2023-04-24T10:40:43;12.70;99.90
18888;DHT22;9576;47.792;9.628;2023-04-24T10:43:45;12.70;99.90
18888;DHT22;9576;47.792;9.628;2023-04-24T10:46:54;12.60;99.90
18888;DHT22;9576;47.792;9.628;2023-04-24T10:49:59;12.40;99.90
18888;DHT22;9576;47.792;9.628;2023-04-24T10:53:07;12.20;99.90
18888;DHT22;9576;47.792;9.628;2023-04-24T10:56:16;12.00;99.90
18888;DHT22;9576;47.792;9.628;2023-04-24T10:59:24;12.10;99.90
18888;DHT22;9576;47.792;9.628;2023-04-24T11:02:36;12.20;99.90
18888;DHT22;9576;47.792;9.628;2023-04-24T11:05:50;12.30;99.90
18888;DHT22;9576;47.792;9.628;2023-04-24T11:09:01;12.50;99.90
18888;DHT22;9576;47.792;9.628;2023-04-24T11:12:05;12.60;99.90
18888;DHT22;9576;47.792;9.628;2023-04-24T11:15:10;12.70;99.90
18888;DHT22;9576;47.792;9.628;2023-04-24T11:18:15;12.80;99.90
18888;DHT22;9576;47.792;9.628;2023-04-24T11:21:17;13.00;99.90
18888;DHT22;9576;47.792;9.628;2023-04-24T11:24:28;13.00;99.90
18888;DHT22;9576;47.792;9.628;2023-04-24T11:27:34;13.10;99.90
18888;DHT22;9576;47.792;9.628;2023-04-24T11:30:40;13.20;99.90
18888;DHT22;9576;47.792;9.628;2023-04-24T11:33:43;13.30;99.90
18888;DHT22;9576;47.792;9.628;2023-04-24T11:36:46;13.40;99.90
18888;DHT22;9576;47.792;9.628;2023-04-24T11:39:51;13.80;99.90
18888;DHT22;9576;47.792;9.628;2023-04-24T11:42:53;14.20;99.90
18888;DHT22;9576;47.792;9.628;2023-04-24T11:45:59;14.40;99.90
18888;DHT22;9576;47.792;9.628;2023-04-24T11:49:03;14.40;99.90
18888;DHT22;9576;47.792;9.628;2023-04-24T11:52:05;13.90;99.90
18888;DHT22;9576;47.792;9.628;2023-04-24T11:55:12;13.50;99.90
18888;DHT22;9576;47.792;9.628;2023-04-24T11:58:24;13.20;99.90
18888;DHT22;9576;47.792;9.628;2023-04-24T12:01:28;12.90;99.90
18888;DHT22;9576;47.792;9.628;2023-04-24T12:04:38;12.70;99.90
18888;DHT22;9576;47.792;9.628;2023-04-24T12:07:41;12.70;99.90
18888;DHT22;9576;47.792;9.628;2023-04-24T12:10:44;12.60;99.90
18888;DHT22;9576;47.792;9.628;2023-04-24T12:13:46;12.90;99.90
18888;DHT22;9576;47.792;9.628;2023-04-24T12:16:48;13.10;99.90
18888;DHT22;9576;47.792;9.628;2023-04-24T12:19:51;13.40;99.90
18888;DHT22;9576;47.792;9.628;2023-04-24T12:22:55;14.10;99.90
18888;DHT22;9576;47.792;9.628;2023-04-24T12:25:59;14.30;99.90
18888;DHT22;9576;47.792;9.628;2023-04-24T12:29:03;14.40;99.90
18888;DHT22;9576;47.792;9.628;2023-04-24T12:32:15;14.90;99.90
18888;DHT22;9576;47.792;9.628;2023-04-24T12:35:22;15.30;99.90
18888;DHT22;9576;47.792;9.628;2023-04-24T12:38:26;14.80;99.90
18888;DHT22;9576;47.792;9.628;2023-04-24T12:41:31;14.60;99.90
18888;DHT22;9576;47.792;9.628;2023-04-24T12:44:33;14.90;99.90
18888;DHT22;9576;47.792;9.628;2023-04-24T12:47:37;15.40;99.90
18888;DHT22;9576;47.792;9.628;2023-04-24T12:50:41;15.90;99.90
18888;DHT22;9576;47.792;9.628;2023-04-24T12:53:43;16.10;99.90
18888;DHT22;9576;47.792;9.628;2023-04-24T12:56:45;16.20;99.90
18888;DHT22;9576;47.792;9.628;2023-04-24T12:59:47;15.80;99.90
18888;DHT22;9576;47.792;9.628;2023-04-24T13:02:49;15.40;99.90
18888;DHT22;9576;47.792;9.628;2023-04-24T13:05:52;15.50;99.90
18888;DHT22;9576;47.792;9.628;2023-04-24T13:08:54;15.90;99.90
18888;DHT22;9576;47.792;9.628;2023-04-24T13:11:58;16.10;99.90
18888;DHT22;9576;47.792;9.628;2023-04-24T13:15:01;16.20;99.90
18888;DHT22;9576;47.792;9.628;2023-04-24T13:18:04;16.00;99.90
18888;DHT22;9576;47.792;9.628;2023-04-24T13:21:07;15.50;99.90
18888;DHT22;9576;47.792;9.628;2023-04-24T13:24:09;15.70;99.90
18888;DHT22;9576;47.792;9.628;2023-04-24T13:27:11;16.40;99.90
18888;DHT22;9576;47.792;9.628;2023-04-24T13:30:13;16.30;99.90
18888;DHT22;9576;47.792;9.628;2023-04-24T13:33:15;16.30;99.90
18888;DHT22;9576;47.792;9.628;2023-04-24T13:36:19;17.10;99.90
18888;DHT22;9576;47.792;9.628;2023-04-24T13:39:21;17.10;99.90
18888;DHT22;9576;47.792;9.628;2023-04-24T13:42:23;17.00;99.90
18888;DHT22;9576;47.792;9.628;2023-04-24T13:45:25;17.40;99.90
18888;DHT22;9576;47.792;9.628;2023-04-24T13:48:27;17.70;99.90
18888;DHT22;9576;47.792;9.628;2023-04-24T13:51:30;18.00;99.90
18888;DHT22;9576;47.792;9.628;2023-04-24T13:54:32;17.60;99.90
18888;DHT22;9576;47.792;9.628;2023-04-24T13:57:34;17.10;99.90
18888;DHT22;9576;47.792;9.628;2023-04-24T14:00:37;16.40;99.90
18888;DHT22;9576;47.792;9.628;2023-04-24T14:03:39;15.70;99.90
18888;DHT22;9576;47.792;9.628;2023-04-24T14:06:43;15.30;99.90
18888;DHT22;9576;47.792;9.628;2023-04-24T14:09:44;15.30;99.90
18888;DHT22;9576;47.792;9.628;2023-04-24T14:12:46;14.90;99.90
18888;DHT22;9576;47.792;9.628;2023-04-24T14:15:48;14.60;99.90
18888;DHT22;9576;47.792;9.628;2023-04-24T14:18:50;14.60;99.90
18888;DHT22;9576;47.792;9.628;2023-04-24T14:21:53;14.40;99.90
18888;DHT22;9576;47.792;9.628;2023-04-24T14:24:57;14.50;99.90
18888;DHT22;9576;47.792;9.628;2023-04-24T14:27:59;14.60;99.90
18888;DHT22;9576;47.792;9.628;2023-04-24T14:31:01;14.70;99.90
18888;DHT22;9576;47.792;9.628;2023-04-24T14:34:03;15.00;99.90
18888;DHT22;9576;47.792;9.628;2023-04-24T14:37:07;16.00;99.90
18888;DHT22;9576;47.792;9.628;2023-04-24T14:40:09;17.10;99.90
18888;DHT22;9576;47.792;9.628;2023-04-24T14:43:11;17.50;99.90
18888;DHT22;9576;47.792;9.628;2023-04-24T14:46:13;17.60;99.90
18888;DHT22;9576;47.792;9.628;2023-04-24T14:49:16;17.40;99.90
18888;DHT22;9576;47.792;9.628;2023-04-24T14:52:19;16.60;99.90
18888;DHT22;9576;47.792;9.628;2023-04-24T14:55:21;15.60;99.90
18888;DHT22;9576;47.792;9.628;2023-04-24T14:58:23;14.80;99.90
18888;DHT22;9576;47.792;9.628;2023-04-24T15:01:25;14.10;99.90
18888;DHT22;9576;47.792;9.628;2023-04-24T15:04:27;13.60;99.90
18888;DHT22;9576;47.792;9.628;2023-04-24T15:07:30;13.30;99.90
18888;DHT22;9576;47.792;9.628;2023-04-24T15:10:33;13.10;99.90
18888;DHT22;9576;47.792;9.628;2023-04-24T15:13:35;13.00;99.90
18888;DHT22;9576;47.792;9.628;2023-04-24T15:16:37;12.80;99.90
18888;DHT22;9576;47.792;9.628;2023-04-24T15:19:39;12.80;99.90
18888;DHT22;9576;47.792;9.628;2023-04-24T15:22:43;12.80;99.90
18888;DHT22;9576;47.792;9.628;2023-04-24T15:25:45;12.80;99.90
18888;DHT22;9576;47.792;9.628;2023-04-24T15:28:47;13.20;99.90
18888;DHT22;9576;47.792;9.628;2023-04-24T15:31:48;13.60;99.90
18888;DHT22;9576;47.792;9.628;2023-04-24T15:34:50;13.60;99.90
18888;DHT22;9576;47.792;9.628;2023-04-24T15:37:54;13.40;99.90
18888;DHT22;9576;47.792;9.628;2023-04-24T15:40:56;13.40;99.90
18888;DHT22;9576;47.792;9.628;2023-04-24T15:43:58;13.30;99.90
18888;DHT22;9576;47.792;9.628;2023-04-24T15:47:00;13.20;99.90
18888;DHT22;9576;47.792;9.628;2023-04-24T15:50:03;13.10;99.90
18888;DHT22;9576;47.792;9.628;2023-04-24T15:53:07;13.10;99.90
18888;DHT22;9576;47.792;9.628;2023-04-24T15:56:09;13.10;99.90
18888;DHT22;9576;47.792;9.628;2023-04-24T15:59:11;13.10;99.90
18888;DHT22;9576;47.792;9.628;2023-04-24T16:02:13;13.00;99.90
18888;DHT22;9576;47.792;9.628;2023-04-24T16:05:18;12.90;99.90
18888;DHT22;9576;47.792;9.628;2023-04-24T16:08:23;12.90;99.90
18888;DHT22;9576;47.792;9.628;2023-04-24T16:11:25;13.00;99.90
18888;DHT22;9576;47.792;9.628;2023-04-24T16:14:27;13.10;99.90
18888;DHT22;9576;47.792;9.628;2023-04-24T16:17:29;14.20;99.90
18888;DHT22;9576;47.792;9.628;2023-04-24T16:20:31;15.00;99.90
18888;DHT22;9576;47.792;9.628;2023-04-24T16:23:36;15.10;99.90
18888;DHT22;9576;47.792;9.628;2023-04-24T16:26:40;14.80;99.90
18888;DHT22;9576;47.792;9.628;2023-04-24T16:29:41;14.60;99.90
18888;DHT22;9576;47.792;9.628;2023-04-24T16:32:43;14.60;99.90
18888;DHT22;9576;47.792;9.628;2023-04-24T16:35:45;14.90;99.90
18888;DHT22;9576;47.792;9.628;2023-04-24T16:38:49;16.80;99.90
18888;DHT22;9576;47.792;9.628;2023-04-24T16:41:51;18.30;99.90
18888;DHT22;9576;47.792;9.628;2023-04-24T16:44:54;19.80;99.90
18888;DHT22;9576;47.792;9.628;2023-04-24T16:47:56;21.50;99.90
18888;DHT22;9576;47.792;9.628;2023-04-24T16:50:58;21.90;99.90
18888;DHT22;9576;47.792;9.628;2023-04-24T16:54:01;21.50;99.90
18888;DHT22;9576;47.792;9.628;2023-04-24T16:57:04;19.90;99.90
18888;DHT22;9576;47.792;9.628;2023-04-24T17:00:40;18.30;99.90
18888;DHT22;9576;47.792;9.628;2023-04-24T17:03:44;15.90;99.90
18888;DHT22;9576;47.792;9.628;2023-04-24T17:06:46;14.80;99.90
18888;DHT22;9576;47.792;9.628;2023-04-24T17:09:50;14.40;99.90
18888;DHT22;9576;47.792;9.628;2023-04-24T17:12:52;14.30;99.90
18888;DHT22;9576;47.792;9.628;2023-04-24T17:15:54;15.30;99.90
18888;DHT22;9576;47.792;9.628;2023-04-24T17:18:56;16.20;99.90
18888;DHT22;9576;47.792;9.628;2023-04-24T17:21:58;17.10;99.90
18888;DHT22;9576;47.792;9.628;2023-04-24T17:25:01;18.00;99.90
18888;DHT22;9576;47.792;9.628;2023-04-24T17:28:03;17.70;99.90
18888;DHT22;9576;47.792;9.628;2023-04-24T17:31:11;16.60;99.90
18888;DHT22;9576;47.792;9.628;2023-04-24T17:34:12;16.10;99.90
18888;DHT22;9576;47.792;9.628;2023-04-24T17:37:14;15.30;99.90
18888;DHT22;9576;47.792;9.628;2023-04-24T17:40:20;14.60;99.90
18888;DHT22;9576;47.792;9.628;2023-04-24T17:43:22;14.10;99.90
18888;DHT22;9576;47.792;9.628;2023-04-24T17:46:25;13.60;99.90
18888;DHT22;9576;47.792;9.628;2023-04-24T17:49:27;13.20;99.90
18888;DHT22;9576;47.792;9.628;2023-04-24T17:52:29;13.00;99.90
18888;DHT22;9576;47.792;9.628;2023-04-24T17:55:32;12.70;99.90
18888;DHT22;9576;47.792;9.628;2023-04-24T17:58:35;12.60;99.90
18888;DHT22;9576;47.792;9.628;2023-04-24T18:01:37;12.50;99.90
18888;DHT22;9576;47.792;9.628;2023-04-24T18:04:38;12.40;99.90
18888;DHT22;9576;47.792;9.628;2023-04-24T18:07:42;12.40;99.90
18888;DHT22;9576;47.792;9.628;2023-04-24T18:10:45;12.40;99.90
18888;DHT22;9576;47.792;9.628;2023-04-24T18:13:47;12.30;99.90
18888;DHT22;9576;47.792;9.628;2023-04-24T18:16:50;12.30;99.90
18888;DHT22;9576;47.792;9.628;2023-04-24T18:19:52;12.20;99.90
18888;DHT22;9576;47.792;9.628;2023-04-24T18:22:53;12.10;99.90
18888;DHT22;9576;47.792;9.628;2023-04-24T18:25:57;12.10;99.90
18888;DHT22;9576;47.792;9.628;2023-04-24T18:28:59;11.90;99.90
18888;DHT22;9576;47.792;9.628;2023-04-24T18:32:01;11.80;99.90
18888;DHT22;9576;47.792;9.628;2023-04-24T18:35:05;11.70;99.90
18888;DHT22;9576;47.792;9.628;2023-04-24T18:38:07;11.60;99.90
18888;DHT22;9576;47.792;9.628;2023-04-24T18:41:10;11.60;99.90
18888;DHT22;9576;47.792;9.628;2023-04-24T18:44:13;11.50;99.90
18888;DHT22;9576;47.792;9.628;2023-04-24T18:47:15;11.30;99.90
18888;DHT22;9576;47.792;9.628;2023-04-24T18:50:17;11.30;99.90
18888;DHT22;9576;47.792;9.628;2023-04-24T18:53:19;11.30;99.90
18888;DHT22;9576;47.792;9.628;2023-04-24T18:56:22;11.30;99.90
18888;DHT22;9576;47.792;9.628;2023-04-24T18:59:25;11.20;99.90
18888;DHT22;9576;47.792;9.628;2023-04-24T19:02:27;11.10;99.90
18888;DHT22;9576;47.792;9.628;2023-04-24T19:05:29;11.00;99.90
18888;DHT22;9576;47.792;9.628;2023-04-24T19:08:31;10.90;99.90
18888;DHT22;9576;47.792;9.628;2023-04-24T19:11:34;10.90;99.90
18888;DHT22;9576;47.792;9.628;2023-04-24T19:14:36;10.80;99.90
18888;DHT22;9576;47.792;9.628;2023-04-24T19:17:38;10.70;99.90
18888;DHT22;9576;47.792;9.628;2023-04-24T19:20:40;10.70;99.90
18888;DHT22;9576;47.792;9.628;2023-04-24T19:23:43;10.70;99.90
18888;DHT22;9576;47.792;9.628;2023-04-24T19:26:47;10.50;99.90
18888;DHT22;9576;47.792;9.628;2023-04-24T19:29:49;10.30;99.90
18888;DHT22;9576;47.792;9.628;2023-04-24T19:32:51;10.10;99.90
18888;DHT22;9576;47.792;9.628;2023-04-24T19:35:53;10.00;99.90
18888;DHT22;9576;47.792;9.628;2023-04-24T19:38:55;9.90;99.90
18888;DHT22;9576;47.792;9.628;2023-04-24T19:41:59;9.90;99.90